createdAt,value
2022-08-31T00:03:15.710Z,19.58
2022-08-31T00:07:18.531Z,19.56
2022-08-31T00:11:28.233Z,19.51
2022-08-31T00:15:30.467Z,19.47
2022-08-31T00:19:32.634Z,19.41
2022-08-31T00:23:34.798Z,19.42
2022-08-31T00:27:37.211Z,19.37
2022-08-31T00:31:39.617Z,19.31
2022-08-31T00:35:42.408Z,19.31
2022-08-31T00:39:44.563Z,19.31
2022-08-31T00:43:54.526Z,19.34
2022-08-31T00:47:56.751Z,19.36
2022-08-31T00:52:08.453Z,19.35
2022-08-31T00:56:11.404Z,19.30
2022-08-31T01:00:18.258Z,19.20
2022-08-31T01:04:20.974Z,19.16
2022-08-31T01:08:30.543Z,19.14
2022-08-31T01:12:33.305Z,19.09
2022-08-31T01:16:40.582Z,19.03
2022-08-31T01:21:03.827Z,19.02
2022-08-31T01:25:07.625Z,18.99
2022-08-31T01:29:09.677Z,18.98
2022-08-31T01:33:13.271Z,18.92
2022-08-31T01:37:15.712Z,18.88
2022-08-31T01:41:17.841Z,18.88
2022-08-31T01:45:20.059Z,18.89
2022-08-31T01:49:23.305Z,18.89
2022-08-31T01:53:25.419Z,18.83
2022-08-31T01:57:34.246Z,18.79
2022-08-31T02:01:57.108Z,18.80
2022-08-31T02:06:06.792Z,18.82
2022-08-31T02:10:09.115Z,18.77
2022-08-31T02:14:11.419Z,18.74
2022-08-31T02:18:13.492Z,18.69
2022-08-31T02:22:15.650Z,18.69
2022-08-31T02:26:19.066Z,18.76
2022-08-31T02:30:21.403Z,18.78
2022-08-31T02:34:26.597Z,18.77
2022-08-31T02:38:28.796Z,18.77
2022-08-31T02:42:49.209Z,18.70
2022-08-31T02:46:53.564Z,18.60
2022-08-31T02:51:27.808Z,18.61
2022-08-31T02:55:30.061Z,18.59
2022-08-31T02:59:32.126Z,18.56
2022-08-31T03:03:35.252Z,18.61
2022-08-31T03:07:38.125Z,18.69
2022-08-31T03:11:40.328Z,18.72
2022-08-31T03:15:42.867Z,18.76
2022-08-31T03:19:45.209Z,18.77
2022-08-31T03:23:47.558Z,18.81
2022-08-31T03:27:50.234Z,18.83
2022-08-31T03:31:52.437Z,18.84
2022-08-31T03:35:54.748Z,18.81
2022-08-31T03:39:57.207Z,18.85
2022-08-31T03:44:01.912Z,18.82
2022-08-31T03:48:11.394Z,18.80
2022-08-31T03:52:16.025Z,18.80
2022-08-31T03:56:22.072Z,18.81
2022-08-31T04:00:26.448Z,18.75
2022-08-31T04:04:35.413Z,18.72
2022-08-31T04:08:56.154Z,18.69
2022-08-31T04:13:20.351Z,18.62
2022-08-31T04:17:44.945Z,18.61
2022-08-31T04:22:08.293Z,18.61
2022-08-31T04:26:23.407Z,18.62
2022-08-31T04:30:25.652Z,18.65
2022-08-31T04:34:28.300Z,18.59
2022-08-31T04:38:31.202Z,18.55
2022-08-31T04:42:37.092Z,18.59
2022-08-31T04:46:39.987Z,18.56
2022-08-31T04:50:43.012Z,18.46
2022-08-31T04:54:45.409Z,18.36
2022-08-31T04:58:59.416Z,18.40
2022-08-31T05:03:03.432Z,18.47
2022-08-31T05:07:05.505Z,18.52
2022-08-31T05:11:13.290Z,18.50
2022-08-31T05:15:15.512Z,18.45
2022-08-31T05:19:18.483Z,18.39
2022-08-31T05:23:20.677Z,18.37
2022-08-31T05:27:22.982Z,18.39
2022-08-31T05:31:29.161Z,18.51
2022-08-31T05:35:34.405Z,18.59
2022-08-31T05:39:36.435Z,18.64
2022-08-31T05:43:39.741Z,18.55
2022-08-31T05:47:42.737Z,18.43
2022-08-31T05:51:44.867Z,18.36
2022-08-31T05:55:47.379Z,18.34
2022-08-31T05:59:50.323Z,18.45
2022-08-31T06:03:54.161Z,18.57
2022-08-31T06:07:56.389Z,18.62
2022-08-31T06:11:59.372Z,18.64
2022-08-31T06:16:02.396Z,18.67
2022-08-31T06:20:05.849Z,18.75
2022-08-31T06:24:10.207Z,18.79
2022-08-31T06:28:15.324Z,18.87
2022-08-31T06:32:19.051Z,18.84
2022-08-31T06:36:32.018Z,18.90
2022-08-31T06:40:44.001Z,18.92
2022-08-31T06:45:05.918Z,18.97
2022-08-31T06:49:16.444Z,19.07
2022-08-31T06:53:18.714Z,19.08
2022-08-31T06:57:39.275Z,19.09
2022-08-31T07:02:11.392Z,19.03
2022-08-31T07:06:20.152Z,19.00
2022-08-31T07:10:22.969Z,19.01
2022-08-31T07:14:27.541Z,18.94
2022-08-31T07:18:32.138Z,18.89
2022-08-31T07:22:34.213Z,18.95
2022-08-31T07:27:04.399Z,19.04
2022-08-31T07:31:44.629Z,19.05
2022-08-31T07:35:46.956Z,19.14
2022-08-31T07:40:21.664Z,19.16
2022-08-31T07:44:24.316Z,19.08
2022-08-31T07:48:27.258Z,19.04
2022-08-31T07:52:47.254Z,19.00
2022-08-31T07:57:08.085Z,18.93
2022-08-31T08:01:11.915Z,18.95
2022-08-31T08:05:27.321Z,18.97
2022-08-31T08:10:07.110Z,19.10
2022-08-31T08:14:47.679Z,19.19
2022-08-31T08:19:07.386Z,19.09
2022-08-31T08:23:13.911Z,19.10
2022-08-31T08:27:38.946Z,19.13
2022-08-31T08:32:00.666Z,19.18
2022-08-31T08:36:07.283Z,19.17
2022-08-31T08:40:28.751Z,19.06
2022-08-31T08:44:35.423Z,19.10
2022-08-31T08:48:41.124Z,19.15
2022-08-31T08:52:47.128Z,19.21
2022-08-31T08:56:49.670Z,19.20
2022-08-31T09:00:56.218Z,19.22
2022-08-31T09:05:24.990Z,19.27
2022-08-31T09:09:55.216Z,19.31
2022-08-31T09:14:09.998Z,19.50
2022-08-31T09:18:38.165Z,19.52
2022-08-31T09:22:52.395Z,19.68
2022-08-31T09:27:18.620Z,19.88
2022-08-31T09:31:39.797Z,19.94
2022-08-31T09:35:42.041Z,19.63
2022-08-31T09:39:47.651Z,19.54
2022-08-31T09:43:49.826Z,19.52
2022-08-31T09:47:58.281Z,19.45
2022-08-31T09:52:47.156Z,19.53
2022-08-31T09:56:55.777Z,19.61
2022-08-31T10:01:12.707Z,19.68
2022-08-31T10:05:40.355Z,19.68
2022-08-31T10:09:44.933Z,19.76
2022-08-31T10:14:03.509Z,19.82
2022-08-31T10:18:39.530Z,20.02
2022-08-31T10:22:47.055Z,20.19
2022-08-31T10:27:03.363Z,20.41
2022-08-31T10:31:13.632Z,20.49
2022-08-31T10:35:20.495Z,20.72
2022-08-31T10:39:31.533Z,20.84
2022-08-31T10:43:48.993Z,20.97
2022-08-31T10:47:55.181Z,21.14
2022-08-31T10:52:10.701Z,21.49
2022-08-31T10:56:35.494Z,21.76
2022-08-31T11:01:05.130Z,21.93
2022-08-31T11:05:30.104Z,22.02
2022-08-31T11:09:54.915Z,22.04
2022-08-31T11:14:07.989Z,22.14
2022-08-31T11:18:51.895Z,22.20
2022-08-31T11:23:21.144Z,22.52
2022-08-31T11:27:28.263Z,22.92
2022-08-31T11:31:33.806Z,23.26
2022-08-31T11:36:02.712Z,23.32
2022-08-31T11:40:11.682Z,23.43
2022-08-31T11:44:34.198Z,23.34
2022-08-31T11:48:51.757Z,23.23
2022-08-31T11:52:56.739Z,23.35
2022-08-31T11:56:58.850Z,23.45
2022-08-31T12:01:12.038Z,23.75
2022-08-31T12:05:57.776Z,23.88
2022-08-31T12:10:39.637Z,24.06
2022-08-31T12:14:51.120Z,24.02
2022-08-31T12:19:43.648Z,23.80
2022-08-31T12:24:18.880Z,23.58
2022-08-31T12:28:29.159Z,23.45
2022-08-31T12:32:36.237Z,23.44
2022-08-31T12:36:38.327Z,23.44
2022-08-31T12:40:46.728Z,23.27
2022-08-31T12:44:51.894Z,23.43
2022-08-31T12:49:28.871Z,23.65
2022-08-31T12:53:44.678Z,23.67
2022-08-31T12:57:55.885Z,23.69
2022-08-31T13:02:00.409Z,23.80
2022-08-31T13:06:09.294Z,23.86
2022-08-31T13:10:15.041Z,24.37
2022-08-31T13:14:29.316Z,24.73
2022-08-31T13:18:31.517Z,25.08
2022-08-31T13:22:41.728Z,24.93
2022-08-31T13:26:45.453Z,24.63
2022-08-31T13:31:03.511Z,24.81
2022-08-31T13:35:10.475Z,24.64
2022-08-31T13:39:16.955Z,24.28
2022-08-31T13:43:26.773Z,24.23
2022-08-31T13:47:31.993Z,24.31
2022-08-31T13:51:38.776Z,24.32
2022-08-31T13:55:43.560Z,24.49
2022-08-31T13:59:47.687Z,24.50
2022-08-31T14:03:58.909Z,24.51
2022-08-31T14:08:03.860Z,24.41
2022-08-31T14:12:06.157Z,24.14
2022-08-31T14:16:09.275Z,23.94
2022-08-31T14:20:26.249Z,23.93
2022-08-31T14:24:28.577Z,24.04
2022-08-31T14:28:41.286Z,24.15
2022-08-31T14:32:45.747Z,24.14
2022-08-31T14:36:52.912Z,24.05
2022-08-31T14:40:56.285Z,24.07
2022-08-31T14:45:03.893Z,24.18
2022-08-31T14:49:07.258Z,24.21
2022-08-31T14:53:10.288Z,24.35
2022-08-31T14:57:18.500Z,24.26
2022-08-31T15:01:22.814Z,23.93
2022-08-31T15:05:25.881Z,23.69
2022-08-31T15:09:27.963Z,23.50
2022-08-31T15:13:33.326Z,23.37
2022-08-31T15:17:36.075Z,23.27
2022-08-31T15:21:45.204Z,23.19
2022-08-31T15:25:48.186Z,23.11
2022-08-31T15:29:53.759Z,22.99
2022-08-31T15:33:59.827Z,22.92
2022-08-31T15:38:06.396Z,22.98
2022-08-31T15:42:11.156Z,23.15
2022-08-31T15:46:14.294Z,23.26
2022-08-31T15:50:19.455Z,23.30
2022-08-31T15:54:24.119Z,23.32
2022-08-31T15:58:31.787Z,23.39
2022-08-31T16:02:36.173Z,23.26
2022-08-31T16:06:38.560Z,23.34
2022-08-31T16:10:46.129Z,23.35
2022-08-31T16:14:51.462Z,23.43
2022-08-31T16:18:57.271Z,23.54
2022-08-31T16:23:00.705Z,23.56
2022-08-31T16:27:09.058Z,23.54
2022-08-31T16:31:12.640Z,23.38
2022-08-31T16:35:14.872Z,23.33
2022-08-31T16:39:18.240Z,23.27
2022-08-31T16:43:20.394Z,23.18
2022-08-31T16:47:22.529Z,23.09
2022-08-31T16:51:24.756Z,22.92
2022-08-31T16:55:26.977Z,22.78
2022-08-31T16:59:30.063Z,22.75
2022-08-31T17:03:32.215Z,22.63
2022-08-31T17:07:34.379Z,22.46
2022-08-31T17:11:45.813Z,22.29
2022-08-31T17:15:47.978Z,22.14
2022-08-31T17:19:52.148Z,21.99
2022-08-31T17:23:57.394Z,21.85
2022-08-31T17:28:05.556Z,21.73
2022-08-31T17:32:11.334Z,21.61
2022-08-31T17:36:20.065Z,21.51
2022-08-31T17:40:23.522Z,21.39
2022-08-31T17:44:30.855Z,21.32
2022-08-31T17:48:36.065Z,21.23
2022-08-31T17:52:38.225Z,21.12
2022-08-31T17:56:47.620Z,21.01
2022-08-31T18:00:50.467Z,20.89
2022-08-31T18:04:53.440Z,20.77
2022-08-31T18:08:57.610Z,20.66
2022-08-31T18:13:02.649Z,20.52
2022-08-31T18:17:08.671Z,20.41
2022-08-31T18:21:10.865Z,20.28
2022-08-31T18:25:13.175Z,20.17
2022-08-31T18:29:18.093Z,20.06
2022-08-31T18:33:21.929Z,19.93
2022-08-31T18:37:25.976Z,19.83
2022-08-31T18:41:47.694Z,19.74
2022-08-31T18:45:50.318Z,19.63
2022-08-31T18:49:54.128Z,19.48
2022-08-31T18:53:56.294Z,19.34
2022-08-31T18:57:58.460Z,19.20
2022-08-31T19:02:00.843Z,19.07
2022-08-31T19:06:04.167Z,18.95
2022-08-31T19:10:12.839Z,18.81
2022-08-31T19:14:17.601Z,18.72
2022-08-31T19:18:19.791Z,18.65
2022-08-31T19:22:22.012Z,18.58
2022-08-31T19:26:40.727Z,18.54
2022-08-31T19:30:48.743Z,18.46
2022-08-31T19:34:50.969Z,18.39
2022-08-31T19:38:53.955Z,18.31
2022-08-31T19:43:41.520Z,18.22
2022-08-31T19:47:27.128Z,18.15
2022-08-31T19:51:30.179Z,18.11
2022-08-31T19:55:32.526Z,18.12
2022-08-31T19:59:35.688Z,18.12
2022-08-31T20:03:40.869Z,18.09
2022-08-31T20:07:45.328Z,18.03
2022-08-31T20:11:48.818Z,18.04
2022-08-31T20:15:52.839Z,17.98
2022-08-31T20:19:57.866Z,17.86
2022-08-31T20:24:04.556Z,17.83
2022-08-31T20:28:07.470Z,17.76
2022-08-31T20:32:10.145Z,17.64
2022-08-31T20:36:21.345Z,17.43
2022-08-31T20:40:23.600Z,17.25
2022-08-31T20:44:29.760Z,17.12
2022-08-31T20:48:50.250Z,17.12
2022-08-31T20:52:52.411Z,16.98
2022-08-31T20:56:55.054Z,16.78
2022-08-31T21:00:57.375Z,16.72
2022-08-31T21:05:15.354Z,16.65
2022-08-31T21:09:22.724Z,16.58
2022-08-31T21:13:24.849Z,16.59
2022-08-31T21:17:26.875Z,16.67
2022-08-31T21:21:30.753Z,16.71
2022-08-31T21:25:33.186Z,16.67
2022-08-31T21:29:36.883Z,16.64
2022-08-31T21:33:40.883Z,16.57
2022-08-31T21:37:42.961Z,16.49
2022-08-31T21:41:46.208Z,16.39
2022-08-31T21:45:48.331Z,16.30
2022-08-31T21:49:57.108Z,16.27
2022-08-31T21:54:03.273Z,16.14
2022-08-31T21:58:05.370Z,15.93
2022-08-31T22:02:11.307Z,15.74
2022-08-31T22:06:26.707Z,15.73
2022-08-31T22:10:30.409Z,15.68
2022-08-31T22:14:36.055Z,15.64
2022-08-31T22:23:05.454Z,15.36
2022-08-31T22:27:11.813Z,15.07
2022-08-31T22:31:16.512Z,15.06
2022-08-31T22:35:18.605Z,15.08
2022-08-31T22:39:25.121Z,14.98
2022-08-31T22:43:27.179Z,15.01
2022-08-31T22:47:29.405Z,15.04
2022-08-31T22:51:32.351Z,15.02
2022-08-31T22:55:37.742Z,14.99
2022-08-31T22:59:39.788Z,14.97
2022-08-31T23:03:42.922Z,14.96
2022-08-31T23:07:44.975Z,14.97
2022-08-31T23:11:47.954Z,14.93
2022-08-31T23:15:50.049Z,14.91
2022-08-31T23:19:54.217Z,14.89
2022-08-31T23:23:57.189Z,14.89
2022-08-31T23:27:59.864Z,14.89
2022-08-31T23:32:02.844Z,14.61
2022-08-31T23:36:07.417Z,14.30
2022-08-31T23:40:10.203Z,14.23
2022-08-31T23:44:13.361Z,14.15
2022-08-31T23:48:15.878Z,14.01
2022-08-31T23:52:21.324Z,13.88
2022-08-31T23:56:36.024Z,13.78
